sensor_id;sensor_type;location;lat;lon;timestamp;P1;durP1;ratioP1;P2;durP2;ratioP2
7807;SDS011;3949;49.254;8.894;2024-03-22T00:00:38;7.07;;;6.37;;
7807;SDS011;3949;49.254;8.894;2024-03-22T00:03:04;8.10;;;6.17;;
7807;SDS011;3949;49.254;8.894;2024-03-22T00:05:30;6.87;;;6.03;;
7807;SDS011;3949;49.254;8.894;2024-03-22T00:07:56;7.60;;;5.47;;
7807;SDS011;3949;49.254;8.894;2024-03-22T00:10:22;23.73;;;14.07;;
7807;SDS011;3949;49.254;8.894;2024-03-22T00:12:50;68.70;;;38.50;;
7807;SDS011;3949;49.254;8.894;2024-03-22T00:15:16;110.53;;;59.03;;
7807;SDS011;3949;49.254;8.894;2024-03-22T00:17:45;67.20;;;38.70;;
7807;SDS011;3949;49.254;8.894;2024-03-22T00:20:11;47.97;;;29.07;;
7807;SDS011;3949;49.254;8.894;2024-03-22T00:22:39;26.00;;;16.80;;
7807;SDS011;3949;49.254;8.894;2024-03-22T00:25:05;14.90;;;10.93;;
7807;SDS011;3949;49.254;8.894;2024-03-22T00:27:31;10.37;;;8.60;;
7807;SDS011;3949;49.254;8.894;2024-03-22T00:29:57;10.33;;;7.83;;
7807;SDS011;3949;49.254;8.894;2024-03-22T00:32:23;9.43;;;6.97;;
7807;SDS011;3949;49.254;8.894;2024-03-22T00:34:49;6.97;;;6.13;;
7807;SDS011;3949;49.254;8.894;2024-03-22T00:37:15;7.00;;;5.67;;
7807;SDS011;3949;49.254;8.894;2024-03-22T00:39:41;6.57;;;5.17;;
7807;SDS011;3949;49.254;8.894;2024-03-22T00:42:07;6.97;;;4.73;;
7807;SDS011;3949;49.254;8.894;2024-03-22T00:44:33;6.33;;;5.27;;
7807;SDS011;3949;49.254;8.894;2024-03-22T00:46:59;5.33;;;4.77;;
7807;SDS011;3949;49.254;8.894;2024-03-22T00:49:27;8.57;;;5.60;;
7807;SDS011;3949;49.254;8.894;2024-03-22T00:51:53;7.83;;;5.77;;
7807;SDS011;3949;49.254;8.894;2024-03-22T00:54:21;6.57;;;5.50;;
7807;SDS011;3949;49.254;8.894;2024-03-22T00:56:47;7.57;;;6.10;;
7807;SDS011;3949;49.254;8.894;2024-03-22T00:59:13;8.47;;;6.00;;
7807;SDS011;3949;49.254;8.894;2024-03-22T01:01:39;7.33;;;5.47;;
7807;SDS011;3949;49.254;8.894;2024-03-22T01:04:05;6.50;;;5.57;;
7807;SDS011;3949;49.254;8.894;2024-03-22T01:06:33;5.33;;;4.83;;
7807;SDS011;3949;49.254;8.894;2024-03-22T01:08:59;11.40;;;6.03;;
7807;SDS011;3949;49.254;8.894;2024-03-22T01:11:25;46.57;;;18.87;;
7807;SDS011;3949;49.254;8.894;2024-03-22T01:13:51;53.33;;;25.70;;
7807;SDS011;3949;49.254;8.894;2024-03-22T01:16:17;25.80;;;14.07;;
7807;SDS011;3949;49.254;8.894;2024-03-22T01:18:43;16.23;;;10.57;;
7807;SDS011;3949;49.254;8.894;2024-03-22T01:21:09;25.00;;;13.40;;
7807;SDS011;3949;49.254;8.894;2024-03-22T01:23:35;19.57;;;12.60;;
7807;SDS011;3949;49.254;8.894;2024-03-22T01:26:01;27.23;;;16.67;;
7807;SDS011;3949;49.254;8.894;2024-03-22T01:28:27;33.57;;;20.03;;
7807;SDS011;3949;49.254;8.894;2024-03-22T01:30:53;23.00;;;14.00;;
7807;SDS011;3949;49.254;8.894;2024-03-22T01:33:19;14.13;;;9.97;;
7807;SDS011;3949;49.254;8.894;2024-03-22T01:35:47;11.93;;;8.67;;
7807;SDS011;3949;49.254;8.894;2024-03-22T01:38:13;10.43;;;8.23;;
7807;SDS011;3949;49.254;8.894;2024-03-22T01:40:39;9.93;;;7.20;;
7807;SDS011;3949;49.254;8.894;2024-03-22T01:43:05;10.17;;;8.47;;
7807;SDS011;3949;49.254;8.894;2024-03-22T01:45:32;13.13;;;8.77;;
7807;SDS011;3949;49.254;8.894;2024-03-22T01:47:58;9.07;;;7.70;;
7807;SDS011;3949;49.254;8.894;2024-03-22T01:50:25;8.13;;;7.10;;
7807;SDS011;3949;49.254;8.894;2024-03-22T01:52:51;8.17;;;6.53;;
7807;SDS011;3949;49.254;8.894;2024-03-22T01:55:17;7.60;;;6.30;;
7807;SDS011;3949;49.254;8.894;2024-03-22T01:57:43;8.27;;;5.73;;
7807;SDS011;3949;49.254;8.894;2024-03-22T02:00:09;5.80;;;5.20;;
7807;SDS011;3949;49.254;8.894;2024-03-22T02:02:35;7.53;;;5.90;;
7807;SDS011;3949;49.254;8.894;2024-03-22T02:05:11;6.87;;;5.53;;
7807;SDS011;3949;49.254;8.894;2024-03-22T02:07:37;7.27;;;5.97;;
7807;SDS011;3949;49.254;8.894;2024-03-22T02:10:07;9.20;;;5.93;;
7807;SDS011;3949;49.254;8.894;2024-03-22T02:12:33;6.53;;;5.37;;
7807;SDS011;3949;49.254;8.894;2024-03-22T02:14:59;6.43;;;5.60;;
7807;SDS011;3949;49.254;8.894;2024-03-22T02:17:25;6.40;;;5.43;;
7807;SDS011;3949;49.254;8.894;2024-03-22T02:19:51;9.07;;;6.40;;
7807;SDS011;3949;49.254;8.894;2024-03-22T02:22:20;6.83;;;5.77;;
7807;SDS011;3949;49.254;8.894;2024-03-22T02:24:48;6.37;;;5.43;;
7807;SDS011;3949;49.254;8.894;2024-03-22T02:27:14;8.00;;;6.20;;
7807;SDS011;3949;49.254;8.894;2024-03-22T02:29:40;8.60;;;6.20;;
7807;SDS011;3949;49.254;8.894;2024-03-22T02:32:06;8.87;;;6.33;;
7807;SDS011;3949;49.254;8.894;2024-03-22T02:34:32;7.10;;;6.03;;
7807;SDS011;3949;49.254;8.894;2024-03-22T02:36:58;7.63;;;5.90;;
7807;SDS011;3949;49.254;8.894;2024-03-22T02:39:24;9.60;;;6.40;;
7807;SDS011;3949;49.254;8.894;2024-03-22T02:41:50;7.83;;;6.20;;
7807;SDS011;3949;49.254;8.894;2024-03-22T02:44:16;7.93;;;6.37;;
7807;SDS011;3949;49.254;8.894;2024-03-22T02:46:45;8.53;;;7.23;;
7807;SDS011;3949;49.254;8.894;2024-03-22T02:49:13;7.50;;;6.10;;
7807;SDS011;3949;49.254;8.894;2024-03-22T02:51:39;8.87;;;6.50;;
7807;SDS011;3949;49.254;8.894;2024-03-22T02:54:05;7.73;;;6.53;;
7807;SDS011;3949;49.254;8.894;2024-03-22T02:56:31;7.67;;;6.37;;
7807;SDS011;3949;49.254;8.894;2024-03-22T02:58:59;9.37;;;6.73;;
7807;SDS011;3949;49.254;8.894;2024-03-22T03:01:25;9.03;;;6.47;;
7807;SDS011;3949;49.254;8.894;2024-03-22T03:03:51;8.13;;;6.60;;
7807;SDS011;3949;49.254;8.894;2024-03-22T03:06:17;7.57;;;6.70;;
7807;SDS011;3949;49.254;8.894;2024-03-22T03:08:44;8.10;;;6.23;;
7807;SDS011;3949;49.254;8.894;2024-03-22T03:11:11;9.03;;;7.03;;
7807;SDS011;3949;49.254;8.894;2024-03-22T03:13:37;10.43;;;6.17;;
7807;SDS011;3949;49.254;8.894;2024-03-22T03:16:05;7.53;;;5.63;;
7807;SDS011;3949;49.254;8.894;2024-03-22T03:18:31;9.90;;;6.70;;
7807;SDS011;3949;49.254;8.894;2024-03-22T03:20:57;8.83;;;6.13;;
7807;SDS011;3949;49.254;8.894;2024-03-22T03:23:23;8.47;;;6.27;;
7807;SDS011;3949;49.254;8.894;2024-03-22T03:25:49;7.80;;;6.27;;
7807;SDS011;3949;49.254;8.894;2024-03-22T03:28:15;8.27;;;6.07;;
7807;SDS011;3949;49.254;8.894;2024-03-22T03:30:40;10.30;;;6.10;;
7807;SDS011;3949;49.254;8.894;2024-03-22T03:33:06;8.50;;;6.40;;
7807;SDS011;3949;49.254;8.894;2024-03-22T03:35:32;7.53;;;6.23;;
7807;SDS011;3949;49.254;8.894;2024-03-22T03:37:58;8.47;;;6.07;;
7807;SDS011;3949;49.254;8.894;2024-03-22T03:40:24;6.47;;;5.70;;
7807;SDS011;3949;49.254;8.894;2024-03-22T03:42:52;9.27;;;7.20;;
7807;SDS011;3949;49.254;8.894;2024-03-22T03:45:18;8.70;;;7.13;;
7807;SDS011;3949;49.254;8.894;2024-03-22T03:47:44;10.10;;;7.20;;
7807;SDS011;3949;49.254;8.894;2024-03-22T03:50:10;9.47;;;7.37;;
7807;SDS011;3949;49.254;8.894;2024-03-22T03:52:36;11.20;;;7.50;;
7807;SDS011;3949;49.254;8.894;2024-03-22T03:55:04;8.93;;;7.23;;
7807;SDS011;3949;49.254;8.894;2024-03-22T03:57:30;10.43;;;7.73;;
7807;SDS011;3949;49.254;8.894;2024-03-22T03:59:56;10.50;;;8.27;;
7807;SDS011;3949;49.254;8.894;2024-03-22T04:02:22;10.23;;;8.23;;
7807;SDS011;3949;49.254;8.894;2024-03-22T04:04:51;11.07;;;7.33;;
7807;SDS011;3949;49.254;8.894;2024-03-22T04:07:17;8.57;;;7.57;;
7807;SDS011;3949;49.254;8.894;2024-03-22T04:09:43;8.90;;;7.40;;
7807;SDS011;3949;49.254;8.894;2024-03-22T04:12:09;8.17;;;6.57;;
7807;SDS011;3949;49.254;8.894;2024-03-22T04:14:37;9.40;;;7.23;;
7807;SDS011;3949;49.254;8.894;2024-03-22T04:17:03;8.47;;;6.60;;
7807;SDS011;3949;49.254;8.894;2024-03-22T04:19:29;8.87;;;7.27;;
7807;SDS011;3949;49.254;8.894;2024-03-22T04:21:55;8.43;;;7.20;;
7807;SDS011;3949;49.254;8.894;2024-03-22T04:24:21;8.83;;;6.53;;
7807;SDS011;3949;49.254;8.894;2024-03-22T04:26:47;8.53;;;5.97;;
7807;SDS011;3949;49.254;8.894;2024-03-22T04:29:13;6.83;;;6.00;;
7807;SDS011;3949;49.254;8.894;2024-03-22T04:31:39;8.53;;;6.90;;
7807;SDS011;3949;49.254;8.894;2024-03-22T04:34:05;10.63;;;7.40;;
7807;SDS011;3949;49.254;8.894;2024-03-22T04:36:32;6.97;;;6.27;;
7807;SDS011;3949;49.254;8.894;2024-03-22T04:39:00;7.30;;;6.20;;
7807;SDS011;3949;49.254;8.894;2024-03-22T04:41:29;10.20;;;6.77;;
7807;SDS011;3949;49.254;8.894;2024-03-22T04:43:55;9.10;;;6.40;;
7807;SDS011;3949;49.254;8.894;2024-03-22T04:46:21;8.17;;;7.23;;
7807;SDS011;3949;49.254;8.894;2024-03-22T04:48:47;23.03;;;12.87;;
7807;SDS011;3949;49.254;8.894;2024-03-22T04:51:13;19.30;;;11.73;;
7807;SDS011;3949;49.254;8.894;2024-03-22T04:53:41;12.50;;;8.67;;
7807;SDS011;3949;49.254;8.894;2024-03-22T04:56:07;9.40;;;7.10;;
7807;SDS011;3949;49.254;8.894;2024-03-22T04:58:34;10.73;;;7.23;;
7807;SDS011;3949;49.254;8.894;2024-03-22T05:01:00;8.97;;;6.33;;
7807;SDS011;3949;49.254;8.894;2024-03-22T05:03:26;9.00;;;7.23;;
7807;SDS011;3949;49.254;8.894;2024-03-22T05:05:52;8.57;;;6.50;;
7807;SDS011;3949;49.254;8.894;2024-03-22T05:08:18;9.03;;;6.40;;
7807;SDS011;3949;49.254;8.894;2024-03-22T05:10:44;9.07;;;6.50;;
7807;SDS011;3949;49.254;8.894;2024-03-22T05:13:13;7.57;;;6.30;;
7807;SDS011;3949;49.254;8.894;2024-03-22T05:15:42;10.57;;;7.40;;
7807;SDS011;3949;49.254;8.894;2024-03-22T05:18:07;9.13;;;7.47;;
7807;SDS011;3949;49.254;8.894;2024-03-22T05:20:34;11.40;;;8.07;;
7807;SDS011;3949;49.254;8.894;2024-03-22T05:22:59;9.00;;;7.33;;
7807;SDS011;3949;49.254;8.894;2024-03-22T05:25:25;8.93;;;6.67;;
7807;SDS011;3949;49.254;8.894;2024-03-22T05:27:51;7.33;;;5.80;;
7807;SDS011;3949;49.254;8.894;2024-03-22T05:30:17;8.53;;;6.07;;
7807;SDS011;3949;49.254;8.894;2024-03-22T05:32:43;8.40;;;6.13;;
7807;SDS011;3949;49.254;8.894;2024-03-22T05:35:12;7.57;;;6.00;;
7807;SDS011;3949;49.254;8.894;2024-03-22T05:37:38;7.77;;;6.30;;
7807;SDS011;3949;49.254;8.894;2024-03-22T05:40:04;8.17;;;6.60;;
7807;SDS011;3949;49.254;8.894;2024-03-22T05:42:31;7.30;;;5.97;;
7807;SDS011;3949;49.254;8.894;2024-03-22T05:44:57;8.93;;;6.40;;
7807;SDS011;3949;49.254;8.894;2024-03-22T05:47:23;8.77;;;6.53;;
7807;SDS011;3949;49.254;8.894;2024-03-22T05:49:49;7.17;;;5.70;;
7807;SDS011;3949;49.254;8.894;2024-03-22T05:52:16;8.47;;;5.90;;
7807;SDS011;3949;49.254;8.894;2024-03-22T05:54:42;7.53;;;6.43;;
7807;SDS011;3949;49.254;8.894;2024-03-22T05:57:08;8.13;;;6.43;;
7807;SDS011;3949;49.254;8.894;2024-03-22T05:59:34;7.97;;;5.73;;
7807;SDS011;3949;49.254;8.894;2024-03-22T06:02:00;7.23;;;6.10;;
7807;SDS011;3949;49.254;8.894;2024-03-22T06:04:26;7.77;;;6.03;;
7807;SDS011;3949;49.254;8.894;2024-03-22T06:06:52;8.53;;;6.10;;
7807;SDS011;3949;49.254;8.894;2024-03-22T06:09:20;8.53;;;6.53;;
7807;SDS011;3949;49.254;8.894;2024-03-22T06:12:01;7.60;;;6.43;;
7807;SDS011;3949;49.254;8.894;2024-03-22T06:14:28;9.07;;;6.60;;
7807;SDS011;3949;49.254;8.894;2024-03-22T06:16:54;7.80;;;6.30;;
7807;SDS011;3949;49.254;8.894;2024-03-22T06:19:20;11.77;;;7.23;;
7807;SDS011;3949;49.254;8.894;2024-03-22T06:21:46;8.17;;;6.67;;
7807;SDS011;3949;49.254;8.894;2024-03-22T06:24:14;11.07;;;7.17;;
7807;SDS011;3949;49.254;8.894;2024-03-22T06:26:40;9.10;;;6.40;;
7807;SDS011;3949;49.254;8.894;2024-03-22T06:29:06;7.47;;;5.77;;
7807;SDS011;3949;49.254;8.894;2024-03-22T06:31:33;10.37;;;7.47;;
7807;SDS011;3949;49.254;8.894;2024-03-22T06:33:59;12.07;;;8.43;;
7807;SDS011;3949;49.254;8.894;2024-03-22T06:36:28;10.67;;;7.53;;
7807;SDS011;3949;49.254;8.894;2024-03-22T06:38:54;10.50;;;8.27;;
7807;SDS011;3949;49.254;8.894;2024-03-22T06:41:20;12.87;;;9.23;;
7807;SDS011;3949;49.254;8.894;2024-03-22T06:43:46;10.67;;;8.97;;
7807;SDS011;3949;49.254;8.894;2024-03-22T06:46:12;9.67;;;7.40;;
7807;SDS011;3949;49.254;8.894;2024-03-22T06:48:38;10.90;;;7.23;;
7807;SDS011;3949;49.254;8.894;2024-03-22T06:51:04;11.33;;;7.87;;
7807;SDS011;3949;49.254;8.894;2024-03-22T06:53:30;11.00;;;7.33;;
7807;SDS011;3949;49.254;8.894;2024-03-22T06:55:55;10.30;;;7.43;;
7807;SDS011;3949;49.254;8.894;2024-03-22T06:58:21;8.50;;;6.93;;
7807;SDS011;3949;49.254;8.894;2024-03-22T07:00:48;10.07;;;7.47;;
7807;SDS011;3949;49.254;8.894;2024-03-22T07:03:14;9.50;;;7.17;;
7807;SDS011;3949;49.254;8.894;2024-03-22T07:05:40;13.77;;;10.20;;
7807;SDS011;3949;49.254;8.894;2024-03-22T07:08:06;11.83;;;8.07;;
7807;SDS011;3949;49.254;8.894;2024-03-22T07:10:32;11.63;;;8.10;;
7807;SDS011;3949;49.254;8.894;2024-03-22T07:12:58;10.13;;;7.60;;
7807;SDS011;3949;49.254;8.894;2024-03-22T07:15:24;8.40;;;6.97;;
7807;SDS011;3949;49.254;8.894;2024-03-22T07:17:50;15.07;;;10.53;;
7807;SDS011;3949;49.254;8.894;2024-03-22T07:20:17;11.43;;;8.47;;
7807;SDS011;3949;49.254;8.894;2024-03-22T07:22:43;11.00;;;7.87;;
7807;SDS011;3949;49.254;8.894;2024-03-22T07:25:09;9.73;;;7.80;;
7807;SDS011;3949;49.254;8.894;2024-03-22T07:27:36;8.80;;;7.53;;
7807;SDS011;3949;49.254;8.894;2024-03-22T07:30:02;9.80;;;8.27;;
7807;SDS011;3949;49.254;8.894;2024-03-22T07:32:29;8.70;;;7.33;;
7807;SDS011;3949;49.254;8.894;2024-03-22T07:34:55;11.57;;;8.53;;
7807;SDS011;3949;49.254;8.894;2024-03-22T07:37:21;11.23;;;8.13;;
7807;SDS011;3949;49.254;8.894;2024-03-22T07:39:47;11.70;;;8.00;;
7807;SDS011;3949;49.254;8.894;2024-03-22T07:42:13;9.80;;;8.10;;
7807;SDS011;3949;49.254;8.894;2024-03-22T07:44:41;8.40;;;7.50;;
7807;SDS011;3949;49.254;8.894;2024-03-22T07:47:07;9.13;;;7.63;;
7807;SDS011;3949;49.254;8.894;2024-03-22T07:49:33;10.00;;;7.73;;
7807;SDS011;3949;49.254;8.894;2024-03-22T07:51:59;11.10;;;7.53;;
7807;SDS011;3949;49.254;8.894;2024-03-22T07:54:25;11.57;;;9.27;;
7807;SDS011;3949;49.254;8.894;2024-03-22T07:56:51;13.23;;;10.10;;
7807;SDS011;3949;49.254;8.894;2024-03-22T07:59:17;12.73;;;8.97;;
7807;SDS011;3949;49.254;8.894;2024-03-22T08:01:44;8.97;;;7.57;;
7807;SDS011;3949;49.254;8.894;2024-03-22T08:04:11;8.67;;;7.77;;
7807;SDS011;3949;49.254;8.894;2024-03-22T08:06:37;10.70;;;8.33;;
7807;SDS011;3949;49.254;8.894;2024-03-22T08:09:03;9.63;;;7.97;;
7807;SDS011;3949;49.254;8.894;2024-03-22T08:11:32;9.10;;;8.00;;
7807;SDS011;3949;49.254;8.894;2024-03-22T08:13:58;12.10;;;9.50;;
7807;SDS011;3949;49.254;8.894;2024-03-22T08:16:31;26.43;;;19.77;;
7807;SDS011;3949;49.254;8.894;2024-03-22T08:18:57;9.43;;;8.13;;
7807;SDS011;3949;49.254;8.894;2024-03-22T08:21:23;8.20;;;7.13;;
7807;SDS011;3949;49.254;8.894;2024-03-22T08:23:50;11.10;;;7.60;;
7807;SDS011;3949;49.254;8.894;2024-03-22T08:26:16;8.17;;;7.17;;
7807;SDS011;3949;49.254;8.894;2024-03-22T08:28:43;7.90;;;7.07;;
7807;SDS011;3949;49.254;8.894;2024-03-22T08:31:09;9.00;;;7.43;;
7807;SDS011;3949;49.254;8.894;2024-03-22T08:33:38;7.13;;;6.43;;
7807;SDS011;3949;49.254;8.894;2024-03-22T08:36:04;7.40;;;6.67;;
7807;SDS011;3949;49.254;8.894;2024-03-22T08:38:30;8.37;;;6.80;;
7807;SDS011;3949;49.254;8.894;2024-03-22T08:40:56;7.77;;;6.97;;
7807;SDS011;3949;49.254;8.894;2024-03-22T08:43:22;6.80;;;6.10;;
7807;SDS011;3949;49.254;8.894;2024-03-22T08:45:50;8.03;;;6.40;;
7807;SDS011;3949;49.254;8.894;2024-03-22T08:48:16;7.97;;;5.83;;
7807;SDS011;3949;49.254;8.894;2024-03-22T08:50:43;7.20;;;6.13;;
7807;SDS011;3949;49.254;8.894;2024-03-22T08:53:08;6.53;;;5.90;;
7807;SDS011;3949;49.254;8.894;2024-03-22T08:55:34;7.30;;;6.60;;
7807;SDS011;3949;49.254;8.894;2024-03-22T08:58:01;6.63;;;5.60;;
7807;SDS011;3949;49.254;8.894;2024-03-22T09:00:27;6.20;;;5.60;;
7807;SDS011;3949;49.254;8.894;2024-03-22T09:02:54;8.73;;;5.97;;
7807;SDS011;3949;49.254;8.894;2024-03-22T09:05:20;5.47;;;4.93;;
7807;SDS011;3949;49.254;8.894;2024-03-22T09:07:46;6.53;;;5.10;;
7807;SDS011;3949;49.254;8.894;2024-03-22T09:10:13;5.90;;;5.00;;
7807;SDS011;3949;49.254;8.894;2024-03-22T09:12:39;6.53;;;5.70;;
7807;SDS011;3949;49.254;8.894;2024-03-22T09:15:05;5.87;;;5.20;;
7807;SDS011;3949;49.254;8.894;2024-03-22T09:17:32;6.50;;;5.40;;
7807;SDS011;3949;49.254;8.894;2024-03-22T09:19:58;7.27;;;5.67;;
7807;SDS011;3949;49.254;8.894;2024-03-22T09:22:24;7.47;;;5.27;;
7807;SDS011;3949;49.254;8.894;2024-03-22T09:24:50;6.67;;;5.23;;
7807;SDS011;3949;49.254;8.894;2024-03-22T09:27:16;6.80;;;5.53;;
7807;SDS011;3949;49.254;8.894;2024-03-22T09:29:44;5.50;;;5.00;;
7807;SDS011;3949;49.254;8.894;2024-03-22T09:32:10;6.03;;;5.40;;
7807;SDS011;3949;49.254;8.894;2024-03-22T09:34:36;7.73;;;6.30;;
7807;SDS011;3949;49.254;8.894;2024-03-22T09:37:02;5.53;;;5.03;;
7807;SDS011;3949;49.254;8.894;2024-03-22T09:39:28;5.97;;;5.40;;
7807;SDS011;3949;49.254;8.894;2024-03-22T09:41:57;5.50;;;5.00;;
7807;SDS011;3949;49.254;8.894;2024-03-22T09:44:23;5.57;;;4.83;;
7807;SDS011;3949;49.254;8.894;2024-03-22T09:46:51;6.07;;;5.10;;
7807;SDS011;3949;49.254;8.894;2024-03-22T09:49:17;6.40;;;5.30;;
7807;SDS011;3949;49.254;8.894;2024-03-22T09:51:44;6.10;;;5.43;;
7807;SDS011;3949;49.254;8.894;2024-03-22T09:54:10;5.63;;;5.13;;
7807;SDS011;3949;49.254;8.894;2024-03-22T09:56:38;5.50;;;5.00;;
7807;SDS011;3949;49.254;8.894;2024-03-22T09:59:08;5.67;;;4.83;;
7807;SDS011;3949;49.254;8.894;2024-03-22T10:01:35;5.33;;;4.83;;
7807;SDS011;3949;49.254;8.894;2024-03-22T10:04:02;7.07;;;4.93;;
7807;SDS011;3949;49.254;8.894;2024-03-22T10:06:31;5.50;;;4.93;;
7807;SDS011;3949;49.254;8.894;2024-03-22T10:09:00;5.30;;;4.80;;
7807;SDS011;3949;49.254;8.894;2024-03-22T10:11:29;5.70;;;5.07;;
7807;SDS011;3949;49.254;8.894;2024-03-22T10:13:55;7.83;;;4.90;;
7807;SDS011;3949;49.254;8.894;2024-03-22T10:16:21;5.13;;;4.57;;
7807;SDS011;3949;49.254;8.894;2024-03-22T10:18:47;5.57;;;4.77;;
7807;SDS011;3949;49.254;8.894;2024-03-22T10:21:16;9.37;;;8.07;;
7807;SDS011;3949;49.254;8.894;2024-03-22T10:23:46;6.13;;;4.47;;
7807;SDS011;3949;49.254;8.894;2024-03-22T10:26:13;5.27;;;4.77;;
7807;SDS011;3949;49.254;8.894;2024-03-22T10:28:45;6.37;;;4.40;;
7807;SDS011;3949;49.254;8.894;2024-03-22T10:31:15;5.00;;;4.07;;
7807;SDS011;3949;49.254;8.894;2024-03-22T10:33:41;7.43;;;4.87;;
7807;SDS011;3949;49.254;8.894;2024-03-22T10:36:07;4.70;;;4.30;;
7807;SDS011;3949;49.254;8.894;2024-03-22T10:38:33;4.80;;;4.30;;
7807;SDS011;3949;49.254;8.894;2024-03-22T10:41:02;4.77;;;4.27;;
7807;SDS011;3949;49.254;8.894;2024-03-22T10:43:28;5.77;;;4.63;;
7807;SDS011;3949;49.254;8.894;2024-03-22T10:45:55;7.13;;;3.90;;
7807;SDS011;3949;49.254;8.894;2024-03-22T10:48:22;4.70;;;3.93;;
7807;SDS011;3949;49.254;8.894;2024-03-22T10:50:50;6.07;;;3.93;;
7807;SDS011;3949;49.254;8.894;2024-03-22T10:53:19;4.63;;;4.13;;
7807;SDS011;3949;49.254;8.894;2024-03-22T10:55:49;5.47;;;4.60;;
7807;SDS011;3949;49.254;8.894;2024-03-22T10:58:16;6.97;;;4.83;;
7807;SDS011;3949;49.254;8.894;2024-03-22T11:00:42;4.13;;;3.37;;
7807;SDS011;3949;49.254;8.894;2024-03-22T11:03:09;5.57;;;3.83;;
7807;SDS011;3949;49.254;8.894;2024-03-22T11:05:44;6.30;;;4.70;;
7807;SDS011;3949;49.254;8.894;2024-03-22T11:08:10;5.03;;;4.30;;
7807;SDS011;3949;49.254;8.894;2024-03-22T11:10:36;5.40;;;4.37;;
7807;SDS011;3949;49.254;8.894;2024-03-22T11:13:05;4.30;;;3.90;;
7807;SDS011;3949;49.254;8.894;2024-03-22T11:15:32;4.60;;;4.10;;
7807;SDS011;3949;49.254;8.894;2024-03-22T11:17:59;4.27;;;3.87;;
7807;SDS011;3949;49.254;8.894;2024-03-22T11:20:25;5.73;;;4.50;;
7807;SDS011;3949;49.254;8.894;2024-03-22T11:22:54;5.37;;;4.23;;
7807;SDS011;3949;49.254;8.894;2024-03-22T11:25:21;4.83;;;4.20;;
7807;SDS011;3949;49.254;8.894;2024-03-22T11:27:47;3.97;;;3.50;;
7807;SDS011;3949;49.254;8.894;2024-03-22T11:30:13;4.00;;;3.60;;
7807;SDS011;3949;49.254;8.894;2024-03-22T11:32:40;5.80;;;4.37;;
7807;SDS011;3949;49.254;8.894;2024-03-22T11:35:12;4.07;;;3.73;;
7807;SDS011;3949;49.254;8.894;2024-03-22T11:37:41;5.20;;;3.90;;
7807;SDS011;3949;49.254;8.894;2024-03-22T11:40:11;5.23;;;4.73;;
7807;SDS011;3949;49.254;8.894;2024-03-22T11:42:41;4.73;;;3.67;;
7807;SDS011;3949;49.254;8.894;2024-03-22T11:45:10;4.50;;;4.03;;
7807;SDS011;3949;49.254;8.894;2024-03-22T11:47:36;5.30;;;4.40;;
7807;SDS011;3949;49.254;8.894;2024-03-22T11:50:03;4.83;;;4.00;;
7807;SDS011;3949;49.254;8.894;2024-03-22T11:52:29;5.30;;;4.40;;
7807;SDS011;3949;49.254;8.894;2024-03-22T11:54:56;5.10;;;4.03;;
7807;SDS011;3949;49.254;8.894;2024-03-22T11:57:22;4.73;;;4.23;;
7807;SDS011;3949;49.254;8.894;2024-03-22T11:59:48;6.63;;;4.33;;
7807;SDS011;3949;49.254;8.894;2024-03-22T12:02:14;4.80;;;3.77;;
7807;SDS011;3949;49.254;8.894;2024-03-22T12:04:47;4.37;;;3.97;;
7807;SDS011;3949;49.254;8.894;2024-03-22T12:07:13;4.50;;;3.87;;
7807;SDS011;3949;49.254;8.894;2024-03-22T12:09:41;4.03;;;3.63;;
7807;SDS011;3949;49.254;8.894;2024-03-22T12:12:09;8.87;;;3.53;;
7807;SDS011;3949;49.254;8.894;2024-03-22T12:14:35;4.00;;;3.60;;
7807;SDS011;3949;49.254;8.894;2024-03-22T12:17:04;4.43;;;3.77;;
7807;SDS011;3949;49.254;8.894;2024-03-22T12:19:30;3.57;;;3.10;;
7807;SDS011;3949;49.254;8.894;2024-03-22T12:21:59;4.37;;;3.30;;
7807;SDS011;3949;49.254;8.894;2024-03-22T12:24:25;3.90;;;3.50;;
7807;SDS011;3949;49.254;8.894;2024-03-22T12:26:52;3.57;;;2.77;;
7807;SDS011;3949;49.254;8.894;2024-03-22T12:29:19;3.40;;;2.60;;
7807;SDS011;3949;49.254;8.894;2024-03-22T12:31:45;5.00;;;3.17;;
7807;SDS011;3949;49.254;8.894;2024-03-22T12:34:11;3.40;;;2.80;;
7807;SDS011;3949;49.254;8.894;2024-03-22T12:36:38;5.20;;;3.20;;
7807;SDS011;3949;49.254;8.894;2024-03-22T12:39:04;3.30;;;3.00;;
7807;SDS011;3949;49.254;8.894;2024-03-22T12:41:30;3.93;;;3.47;;
7807;SDS011;3949;49.254;8.894;2024-03-22T12:43:57;3.40;;;3.10;;
7807;SDS011;3949;49.254;8.894;2024-03-22T12:46:25;3.40;;;3.10;;
7807;SDS011;3949;49.254;8.894;2024-03-22T12:48:54;3.57;;;3.20;;
7807;SDS011;3949;49.254;8.894;2024-03-22T12:51:20;5.93;;;3.70;;
7807;SDS011;3949;49.254;8.894;2024-03-22T12:53:46;3.83;;;3.20;;
7807;SDS011;3949;49.254;8.894;2024-03-22T12:56:13;4.50;;;3.37;;
7807;SDS011;3949;49.254;8.894;2024-03-22T12:58:40;4.20;;;3.80;;
7807;SDS011;3949;49.254;8.894;2024-03-22T13:01:06;5.53;;;3.80;;
7807;SDS011;3949;49.254;8.894;2024-03-22T13:03:36;3.87;;;3.47;;
7807;SDS011;3949;49.254;8.894;2024-03-22T13:06:03;3.60;;;3.20;;
7807;SDS011;3949;49.254;8.894;2024-03-22T13:08:30;4.57;;;3.70;;
7807;SDS011;3949;49.254;8.894;2024-03-22T13:10:56;5.63;;;4.13;;
7807;SDS011;3949;49.254;8.894;2024-03-22T13:13:22;6.00;;;4.60;;
7807;SDS011;3949;49.254;8.894;2024-03-22T13:15:50;4.03;;;3.47;;
7807;SDS011;3949;49.254;8.894;2024-03-22T13:18:16;4.80;;;3.00;;
7807;SDS011;3949;49.254;8.894;2024-03-22T13:20:42;5.70;;;2.70;;
7807;SDS011;3949;49.254;8.894;2024-03-22T13:23:09;4.43;;;3.27;;
7807;SDS011;3949;49.254;8.894;2024-03-22T13:25:36;3.30;;;3.03;;
7807;SDS011;3949;49.254;8.894;2024-03-22T13:28:03;4.00;;;3.60;;
7807;SDS011;3949;49.254;8.894;2024-03-22T13:30:30;7.43;;;3.53;;
7807;SDS011;3949;49.254;8.894;2024-03-22T13:32:58;4.40;;;3.30;;
7807;SDS011;3949;49.254;8.894;2024-03-22T13:35:27;3.73;;;3.23;;
7807;SDS011;3949;49.254;8.894;2024-03-22T13:37:53;4.73;;;3.63;;
7807;SDS011;3949;49.254;8.894;2024-03-22T13:40:19;5.37;;;4.00;;
7807;SDS011;3949;49.254;8.894;2024-03-22T13:42:45;4.63;;;3.63;;
7807;SDS011;3949;49.254;8.894;2024-03-22T13:45:11;3.20;;;2.90;;
7807;SDS011;3949;49.254;8.894;2024-03-22T13:47:37;5.18;;;4.07;;
7807;SDS011;3949;49.254;8.894;2024-03-22T13:50:05;3.57;;;2.90;;
7807;SDS011;3949;49.254;8.894;2024-03-22T13:52:33;4.63;;;3.00;;
7807;SDS011;3949;49.254;8.894;2024-03-22T13:55:02;3.23;;;2.90;;
7807;SDS011;3949;49.254;8.894;2024-03-22T13:57:29;4.00;;;2.70;;
7807;SDS011;3949;49.254;8.894;2024-03-22T13:59:56;3.47;;;2.43;;
7807;SDS011;3949;49.254;8.894;2024-03-22T14:02:22;5.43;;;3.10;;
7807;SDS011;3949;49.254;8.894;2024-03-22T14:04:48;3.67;;;3.00;;
7807;SDS011;3949;49.254;8.894;2024-03-22T14:07:14;3.37;;;2.40;;
7807;SDS011;3949;49.254;8.894;2024-03-22T14:09:40;3.47;;;3.00;;
7807;SDS011;3949;49.254;8.894;2024-03-22T14:12:08;3.27;;;2.80;;
7807;SDS011;3949;49.254;8.894;2024-03-22T14:14:34;9.70;;;3.20;;
7807;SDS011;3949;49.254;8.894;2024-03-22T14:17:00;2.97;;;2.67;;
7807;SDS011;3949;49.254;8.894;2024-03-22T14:19:26;4.07;;;2.93;;
7807;SDS011;3949;49.254;8.894;2024-03-22T14:21:52;4.27;;;3.17;;
7807;SDS011;3949;49.254;8.894;2024-03-22T14:24:18;5.03;;;2.73;;
7807;SDS011;3949;49.254;8.894;2024-03-22T14:26:44;4.63;;;3.00;;
7807;SDS011;3949;49.254;8.894;2024-03-22T14:29:10;4.67;;;2.87;;
7807;SDS011;3949;49.254;8.894;2024-03-22T14:31:36;3.40;;;2.80;;
7807;SDS011;3949;49.254;8.894;2024-03-22T14:34:03;3.53;;;2.90;;
7807;SDS011;3949;49.254;8.894;2024-03-22T14:36:32;4.03;;;2.60;;
7807;SDS011;3949;49.254;8.894;2024-03-22T14:38:59;3.70;;;2.60;;
7807;SDS011;3949;49.254;8.894;2024-03-22T14:41:25;3.37;;;2.60;;
7807;SDS011;3949;49.254;8.894;2024-03-22T14:43:51;2.70;;;2.50;;
7807;SDS011;3949;49.254;8.894;2024-03-22T14:46:17;3.83;;;2.60;;
7807;SDS011;3949;49.254;8.894;2024-03-22T14:48:45;2.67;;;2.47;;
7807;SDS011;3949;49.254;8.894;2024-03-22T14:51:11;8.00;;;5.87;;
7807;SDS011;3949;49.254;8.894;2024-03-22T14:53:37;3.87;;;2.73;;
7807;SDS011;3949;49.254;8.894;2024-03-22T14:56:03;3.27;;;2.33;;
7807;SDS011;3949;49.254;8.894;2024-03-22T14:58:30;2.83;;;2.60;;
7807;SDS011;3949;49.254;8.894;2024-03-22T15:00:59;4.30;;;2.80;;
7807;SDS011;3949;49.254;8.894;2024-03-22T15:03:26;2.80;;;2.40;;
7807;SDS011;3949;49.254;8.894;2024-03-22T15:05:52;3.43;;;2.37;;
7807;SDS011;3949;49.254;8.894;2024-03-22T15:08:19;2.40;;;2.20;;